Time;durP1;ratioP1;P1;durP2;ratioP2;P2;SDS_P1;SDS_P2;PMS_P1;PMS_P2;Temp;Humidity;BMP_temperature;BMP_pressure;BME280_temperature;BME280_humidity;BME280_pressure;Samples;Min_cycle;Max_cycle;Signal;HPM_P1;HPM_P2
2021/01/20 00:00:08;;;;;;;26.92;15.85;;;6.40;99.90;;;;;;5028553;28;20341;-44
2021/01/20 00:02:33;;;;;;;27.58;17.13;;;6.40;99.90;;;;;;5028703;28;20230;-43
2021/01/20 00:04:59;;;;;;;36.38;17.95;;;6.40;99.90;;;;;;5028137;28;20036;-44
2021/01/20 00:07:25;;;;;;;26.20;15.45;;;6.40;99.90;;;;;;5028665;28;20079;-43
2021/01/20 00:09:50;;;;;;;23.77;15.68;;;6.40;99.90;;;;;;5027592;28;20067;-43
2021/01/20 00:12:15;;;;;;;24.38;15.65;;;6.40;99.90;;;;;;5028576;28;20025;-43
2021/01/20 00:14:41;;;;;;;23.98;14.02;;;6.40;99.90;;;;;;5027701;28;20048;-44
2021/01/20 00:17:06;;;;;;;23.52;15.30;;;6.30;99.90;;;;;;5028627;28;20044;-42
2021/01/20 00:19:32;;;;;;;26.27;16.30;;;6.30;99.90;;;;;;5028748;28;20068;-43
2021/01/20 00:21:57;;;;;;;20.75;14.75;;;6.20;99.90;;;;;;5028612;28;20025;-44
2021/01/20 00:24:23;;;;;;;23.10;15.02;;;6.20;99.90;;;;;;5028368;28;20029;-44
2021/01/20 00:26:49;;;;;;;27.45;15.60;;;6.20;99.90;;;;;;5028339;28;20072;-45
2021/01/20 00:29:15;;;;;;;23.60;13.82;;;6.20;99.90;;;;;;5028159;28;20021;-43
2021/01/20 00:31:40;;;;;;;21.55;13.55;;;6.10;99.90;;;;;;5028393;28;20022;-43
2021/01/20 00:34:06;;;;;;;18.85;13.10;;;6.20;99.90;;;;;;5028237;28;20399;-43
2021/01/20 00:36:32;;;;;;;19.48;13.23;;;6.20;99.90;;;;;;5027693;28;20100;-43
2021/01/20 00:38:57;;;;;;;24.73;14.43;;;6.20;99.90;;;;;;5028452;28;20026;-43
2021/01/20 00:41:23;;;;;;;21.38;13.65;;;6.10;99.90;;;;;;5028376;28;20029;-44
2021/01/20 00:43:48;;;;;;;21.23;13.77;;;6.00;99.90;;;;;;5028339;28;20387;-43
2021/01/20 00:46:14;;;;;;;24.63;14.35;;;6.10;99.90;;;;;;5027608;28;20164;-43
2021/01/20 00:48:39;;;;;;;20.85;13.80;;;6.00;99.90;;;;;;5028103;28;20055;-44
2021/01/20 00:51:05;;;;;;;25.10;14.85;;;5.90;99.90;;;;;;5028371;28;20097;-43
2021/01/20 00:53:30;;;;;;;17.35;11.88;;;5.90;99.90;;;;;;5028509;28;20021;-42
2021/01/20 00:55:56;;;;;;;20.05;13.45;;;5.90;99.90;;;;;;5028186;28;20498;-46
2021/01/20 00:58:21;;;;;;;18.92;12.48;;;5.90;99.90;;;;;;5027739;28;20029;-44
2021/01/20 01:00:47;;;;;;;17.80;13.15;;;5.90;99.90;;;;;;5028247;28;20087;-46
2021/01/20 01:03:12;;;;;;;22.67;13.73;;;5.90;99.90;;;;;;5028192;28;20095;-44
2021/01/20 01:05:38;;;;;;;21.40;12.32;;;5.90;99.90;;;;;;5027682;28;20041;-44
2021/01/20 01:08:03;;;;;;;19.77;13.23;;;5.90;99.90;;;;;;5026903;28;20057;-43
2021/01/20 01:10:29;;;;;;;20.70;13.75;;;5.80;99.90;;;;;;5028180;28;20032;-44
2021/01/20 01:12:54;;;;;;;19.30;12.38;;;5.70;99.90;;;;;;5028094;28;20156;-46
2021/01/20 01:15:20;;;;;;;18.88;13.00;;;5.80;99.90;;;;;;5027226;28;20045;-45
2021/01/20 01:17:46;;;;;;;20.33;12.15;;;5.80;99.90;;;;;;5026942;28;20100;-44
2021/01/20 01:20:12;;;;;;;19.02;11.25;;;5.80;99.90;;;;;;5028117;28;20395;-45
2021/01/20 01:22:38;;;;;;;14.95;11.68;;;5.80;99.90;;;;;;5027937;28;20025;-44
2021/01/20 01:25:04;;;;;;;17.50;10.82;;;5.90;99.90;;;;;;5029693;28;20047;-44
2021/01/20 01:27:30;;;;;;;15.80;10.95;;;6.00;99.90;;;;;;5031302;28;20430;-45
2021/01/20 01:29:55;;;;;;;13.32;10.32;;;5.90;99.90;;;;;;5031730;28;20192;-46
2021/01/20 01:32:20;;;;;;;16.05;10.70;;;6.00;99.90;;;;;;5031486;28;20029;-46
2021/01/20 01:34:46;;;;;;;13.95;9.70;;;5.90;99.90;;;;;;5031088;28;20502;-47
2021/01/20 01:37:11;;;;;;;14.52;9.90;;;5.90;99.90;;;;;;5031583;28;20032;-43
2021/01/20 01:39:37;;;;;;;14.20;9.75;;;6.00;99.90;;;;;;5031520;28;20048;-44
2021/01/20 01:42:04;;;;;;;14.50;9.35;;;5.90;99.90;;;;;;5031397;28;20037;-45
2021/01/20 01:44:33;;;;;;;12.15;9.43;;;6.00;99.90;;;;;;5030483;28;20124;-46
2021/01/20 01:46:59;;;;;;;14.55;9.52;;;5.90;99.90;;;;;;5031799;28;20034;-46
2021/01/20 01:49:25;;;;;;;15.63;10.38;;;5.90;99.90;;;;;;5031403;28;20032;-44
2021/01/20 01:51:52;;;;;;;15.35;8.73;;;5.90;99.90;;;;;;5030008;28;20202;-44
2021/01/20 01:54:17;;;;;;;12.77;9.00;;;5.90;99.90;;;;;;5031566;28;20032;-45
2021/01/20 01:56:43;;;;;;;12.80;9.15;;;5.90;99.90;;;;;;5030412;28;20029;-44
2021/01/20 01:59:09;;;;;;;12.32;8.27;;;5.90;99.90;;;;;;5031033;28;20030;-44
2021/01/20 02:01:35;;;;;;;9.90;7.75;;;5.90;99.90;;;;;;5030953;28;20268;-44
2021/01/20 02:04:00;;;;;;;11.63;7.88;;;5.90;99.90;;;;;;5031260;28;20072;-43
2021/01/20 02:06:26;;;;;;;10.60;7.57;;;5.90;99.90;;;;;;5030310;28;20029;-45
2021/01/20 02:08:53;;;;;;;10.20;8.05;;;5.90;99.90;;;;;;5029633;28;20097;-43
2021/01/20 02:11:26;;;;;;;11.30;7.63;;;5.90;99.90;;;;;;5030840;28;20084;-44
2021/01/20 02:14:28;;;;;;;11.63;7.70;;;5.90;99.90;;;;;;5030943;28;20025;-44
2021/01/20 02:17:18;;;;;;;11.90;7.40;;;5.90;99.90;;;;;;5030920;28;20025;-44
2021/01/20 02:20:06;;;;;;;9.77;7.30;;;5.90;99.90;;;;;;5030666;28;20055;-44
2021/01/20 02:22:37;;;;;;;9.13;7.03;;;5.90;99.90;;;;;;5030733;28;20025;-44
2021/01/20 02:25:26;;;;;;;12.05;7.43;;;5.80;99.90;;;;;;5030135;28;20026;-44
2021/01/20 02:28:13;;;;;;;10.45;7.18;;;5.90;99.90;;;;;;5030447;28;20436;-45
2021/01/20 02:30:41;;;;;;;14.40;8.63;;;5.80;99.90;;;;;;5030212;28;20649;-44
2021/01/20 02:33:09;;;;;;;15.80;8.15;;;5.90;99.90;;;;;;5030383;28;20034;-44
2021/01/20 02:35:36;;;;;;;14.55;8.10;;;5.90;99.90;;;;;;5029042;28;20060;-44
2021/01/20 02:38:04;;;;;;;13.90;7.60;;;5.90;99.90;;;;;;5030335;28;20490;-44
2021/01/20 02:40:30;;;;;;;12.10;8.48;;;5.90;99.90;;;;;;5030504;28;20088;-45
2021/01/20 02:42:56;;;;;;;13.27;7.38;;;5.90;99.90;;;;;;5029370;28;20523;-44
2021/01/20 02:45:22;;;;;;;13.70;7.63;;;5.90;99.90;;;;;;5029607;28;20026;-44
2021/01/20 02:47:49;;;;;;;15.30;7.82;;;5.90;99.90;;;;;;5012466;28;20029;-44
2021/01/20 02:50:15;;;;;;;14.43;8.45;;;5.80;99.90;;;;;;5030316;28;20034;-44
2021/01/20 02:53:05;;;;;;;18.77;9.25;;;5.90;99.90;;;;;;5030071;28;20029;-42
2021/01/20 02:55:32;;;;;;;13.70;8.07;;;5.90;99.90;;;;;;5029906;28;20025;-45
2021/01/20 02:58:01;;;;;;;14.32;7.32;;;5.80;99.90;;;;;;5030086;28;20038;-44
2021/01/20 03:00:29;;;;;;;12.45;8.38;;;5.80;99.90;;;;;;5029850;28;20026;-44
2021/01/20 03:02:58;;;;;;;10.77;6.80;;;5.80;99.90;;;;;;5029851;28;20167;-44
2021/01/20 03:05:26;;;;;;;12.65;6.95;;;5.80;99.90;;;;;;5027964;28;20025;-43
2021/01/20 03:07:52;;;;;;;9.40;6.90;;;5.80;99.90;;;;;;5029929;28;20064;-44
2021/01/20 03:10:19;;;;;;;14.45;6.47;;;5.70;99.90;;;;;;5029947;28;20060;-44
2021/01/20 03:12:45;;;;;;;16.48;7.70;;;5.70;99.90;;;;;;5030025;28;20033;-43
2021/01/20 03:15:28;;;;;;;11.73;6.63;;;5.70;99.90;;;;;;5029030;28;20036;-44
2021/01/20 03:17:54;;;;;;;11.55;6.80;;;5.70;99.90;;;;;;5029641;28;20029;-43
2021/01/20 03:20:19;;;;;;;12.63;6.97;;;5.70;99.90;;;;;;5029586;28;20033;-43
2021/01/20 03:22:45;;;;;;;9.57;5.72;;;5.70;99.90;;;;;;5028324;28;20547;-43
2021/01/20 03:25:11;;;;;;;7.63;5.20;;;5.70;99.90;;;;;;5028998;28;20029;-45
2021/01/20 03:27:36;;;;;;;8.65;5.57;;;5.70;99.90;;;;;;5028697;28;20029;-43
2021/01/20 03:30:04;;;;;;;10.63;5.38;;;5.70;99.90;;;;;;5029091;28;20108;-44
2021/01/20 03:32:29;;;;;;;9.50;5.65;;;5.70;99.90;;;;;;5029184;28;20120;-44
2021/01/20 03:34:55;;;;;;;9.82;5.15;;;5.70;99.90;;;;;;5028746;28;20101;-46
2021/01/20 03:37:20;;;;;;;10.98;5.60;;;5.60;99.90;;;;;;5029573;28;20671;-44
2021/01/20 03:39:46;;;;;;;10.05;5.90;;;5.60;99.90;;;;;;5029307;28;20387;-43
2021/01/20 03:42:11;;;;;;;11.13;5.63;;;5.60;99.90;;;;;;5029285;28;20037;-43
2021/01/20 03:44:37;;;;;;;12.25;5.80;;;5.60;99.90;;;;;;5028232;28;20029;-43
2021/01/20 03:47:02;;;;;;;10.75;5.38;;;5.50;99.90;;;;;;5028779;28;20032;-44
2021/01/20 03:49:28;;;;;;;9.52;5.53;;;5.50;99.90;;;;;;5028944;28;20087;-43
2021/01/20 03:51:53;;;;;;;11.35;5.20;;;5.50;99.90;;;;;;5029031;28;20053;-45
2021/01/20 03:54:19;;;;;;;8.05;5.22;;;5.50;99.90;;;;;;5028752;28;20029;-44
2021/01/20 03:56:44;;;;;;;8.25;4.90;;;5.50;99.90;;;;;;5028376;28;20083;-44
2021/01/20 03:59:09;;;;;;;6.72;4.18;;;5.50;99.90;;;;;;5028745;28;20060;-44
2021/01/20 04:01:35;;;;;;;12.98;5.07;;;5.50;99.90;;;;;;5028061;28;20043;-44
2021/01/20 04:04:01;;;;;;;9.07;4.43;;;5.50;99.90;;;;;;5028180;28;20373;-44
2021/01/20 04:06:27;;;;;;;9.27;4.70;;;5.40;99.90;;;;;;5028102;28;20489;-46
2021/01/20 04:08:52;;;;;;;7.75;4.05;;;5.40;99.90;;;;;;5028933;28;20025;-44
2021/01/20 04:11:18;;;;;;;12.15;4.88;;;5.40;99.90;;;;;;5028707;28;20466;-42
2021/01/20 04:13:45;;;;;;;8.88;4.20;;;5.40;99.90;;;;;;5029093;28;20032;-44
2021/01/20 04:16:10;;;;;;;9.85;4.32;;;5.30;99.90;;;;;;5027861;28;20032;-44
2021/01/20 04:18:36;;;;;;;6.97;3.70;;;5.30;99.90;;;;;;5028684;28;20030;-44
2021/01/20 04:21:01;;;;;;;8.82;4.07;;;5.30;99.90;;;;;;5029040;28;20256;-43
2021/01/20 04:23:27;;;;;;;10.07;4.95;;;5.30;99.90;;;;;;5028803;28;20423;-43
2021/01/20 04:25:52;;;;;;;11.07;4.10;;;5.30;99.90;;;;;;5025984;28;20056;-43
2021/01/20 04:28:18;;;;;;;8.30;4.70;;;5.30;99.90;;;;;;5028422;28;20072;-44
2021/01/20 04:30:43;;;;;;;8.23;3.80;;;5.30;99.90;;;;;;5027329;28;20363;-44
2021/01/20 04:33:09;;;;;;;6.70;4.10;;;5.30;99.90;;;;;;5027206;28;20037;-45
2021/01/20 04:35:34;;;;;;;8.80;4.07;;;5.20;99.90;;;;;;5027851;28;20041;-44
2021/01/20 04:38:01;;;;;;;8.25;4.00;;;5.30;99.90;;;;;;5027147;28;20495;-44
2021/01/20 04:40:26;;;;;;;6.20;3.67;;;5.30;99.90;;;;;;5028249;28;20371;-44
2021/01/20 04:42:52;;;;;;;7.25;3.50;;;5.20;99.90;;;;;;5027092;28;20033;-43
2021/01/20 04:45:17;;;;;;;8.02;4.10;;;5.20;99.90;;;;;;5027955;28;20049;-44
2021/01/20 04:47:44;;;;;;;10.38;3.85;;;5.20;99.90;;;;;;5028359;28;20499;-43
2021/01/20 04:50:12;;;;;;;9.70;3.88;;;5.30;99.90;;;;;;5028386;28;20028;-45
2021/01/20 04:52:45;;;;;;;12.35;4.15;;;5.20;99.90;;;;;;5028415;28;20021;-44
2021/01/20 04:55:11;;;;;;;8.27;3.95;;;5.20;99.90;;;;;;5028246;28;20022;-43
2021/01/20 04:57:37;;;;;;;10.00;4.22;;;5.20;99.90;;;;;;5028109;28;20035;-45
2021/01/20 05:00:07;;;;;;;7.90;3.75;;;5.20;99.90;;;;;;5030636;28;20112;-43
2021/01/20 05:02:33;;;;;;;6.68;4.47;;;5.10;99.90;;;;;;5032101;28;20482;-44
2021/01/20 05:05:00;;;;;;;7.82;3.97;;;5.10;99.90;;;;;;5029949;28;20044;-43
2021/01/20 05:07:28;;;;;;;8.70;3.65;;;5.10;99.90;;;;;;5031655;28;20056;-45
2021/01/20 05:09:53;;;;;;;5.90;3.90;;;5.10;99.90;;;;;;5030538;28;20078;-44
2021/01/20 05:12:37;;;;;;;7.03;3.40;;;5.20;99.90;;;;;;5030520;28;20091;-44
2021/01/20 05:15:05;;;;;;;6.88;4.22;;;5.20;99.90;;;;;;5029809;28;20021;-44
2021/01/20 05:17:31;;;;;;;10.52;4.68;;;5.20;99.90;;;;;;5030646;28;20221;-44
2021/01/20 05:19:57;;;;;;;9.77;3.72;;;5.30;99.90;;;;;;5030778;28;20378;-44
2021/01/20 05:22:23;;;;;;;8.10;3.47;;;5.30;99.90;;;;;;5030957;28;20030;-42
2021/01/20 05:24:57;;;;;;;4.57;3.00;;;5.30;99.90;;;;;;5030035;28;20116;-45
2021/01/20 05:27:27;;;;;;;6.80;3.97;;;5.30;99.90;;;;;;5031702;28;20034;-44
2021/01/20 05:30:03;;;;;;;9.10;4.30;;;5.30;99.90;;;;;;5031502;28;20041;-44
2021/01/20 05:32:29;;;;;;;5.88;3.72;;;5.30;99.90;;;;;;5031366;28;20572;-43
2021/01/20 05:34:58;;;;;;;7.15;4.38;;;5.30;99.90;;;;;;5031302;28;20061;-44
2021/01/20 05:37:23;;;;;;;11.05;4.63;;;5.30;99.90;;;;;;5031451;28;20490;-43
2021/01/20 05:39:49;;;;;;;7.93;4.10;;;5.30;99.90;;;;;;5031363;28;20064;-42
2021/01/20 05:42:14;;;;;;;7.80;4.18;;;5.30;99.90;;;;;;5030963;28;20454;-44
2021/01/20 05:44:40;;;;;;;8.43;4.13;;;5.30;99.90;;;;;;5027334;28;20099;-44
2021/01/20 05:47:13;;;;;;;8.15;4.72;;;5.40;99.90;;;;;;5030474;28;20112;-44
2021/01/20 05:49:39;;;;;;;10.30;5.45;;;5.40;99.90;;;;;;5030253;28;20029;-44
2021/01/20 05:52:15;;;;;;;12.23;4.95;;;5.40;99.90;;;;;;5030399;28;20117;-43
2021/01/20 05:54:41;;;;;;;6.93;4.30;;;5.40;99.90;;;;;;5027469;28;20018;-47
2021/01/20 05:57:16;;;;;;;8.73;3.83;;;5.30;99.90;;;;;;5030938;28;20029;-44
2021/01/20 05:59:43;;;;;;;7.28;3.83;;;5.30;99.90;;;;;;5031414;28;20180;-46
2021/01/20 06:02:10;;;;;;;6.25;3.60;;;5.30;99.90;;;;;;5030654;28;20395;-45
2021/01/20 06:04:37;;;;;;;7.63;4.03;;;5.40;99.90;;;;;;5028942;28;20037;-43
2021/01/20 06:07:09;;;;;;;7.47;4.05;;;5.30;99.90;;;;;;5030384;28;20119;-44
2021/01/20 06:09:37;;;;;;;7.53;3.75;;;5.40;99.90;;;;;;5028136;28;20017;-42
2021/01/20 06:12:06;;;;;;;6.00;3.53;;;5.50;99.90;;;;;;5028995;28;20135;-44
2021/01/20 06:14:32;;;;;;;12.00;5.13;;;5.50;99.90;;;;;;5029727;28;20191;-44
2021/01/20 06:17:07;;;;;;;9.32;4.70;;;5.50;99.90;;;;;;5025204;28;20498;-43
2021/01/20 06:19:37;;;;;;;6.63;3.67;;;5.60;99.90;;;;;;5017613;28;20037;-48
2021/01/20 06:22:03;;;;;;;8.15;4.32;;;5.60;99.90;;;;;;5030563;28;20032;-43
2021/01/20 06:24:37;;;;;;;10.32;3.72;;;5.60;99.90;;;;;;5029196;28;20045;-43
2021/01/20 06:27:12;;;;;;;9.23;4.43;;;5.60;99.90;;;;;;5029092;28;20026;-45
2021/01/20 06:29:46;;;;;;;8.85;4.85;;;5.70;99.90;;;;;;5028049;28;20058;-43
2021/01/20 06:32:17;;;;;;;8.82;4.10;;;5.70;99.90;;;;;;5023520;28;20014;-43
2021/01/20 06:34:54;;;;;;;7.80;4.03;;;5.70;99.90;;;;;;5029149;28;20029;-43
2021/01/20 06:37:36;;;;;;;7.25;3.80;;;5.70;99.90;;;;;;5029850;28;20048;-45
2021/01/20 06:40:23;;;;;;;10.02;4.07;;;5.70;99.90;;;;;;5028079;28;20069;-45
2021/01/20 06:42:49;;;;;;;7.43;4.15;;;5.60;99.90;;;;;;5026479;28;20112;-44
2021/01/20 06:45:23;;;;;;;10.13;3.67;;;5.70;99.90;;;;;;5026331;28;20033;-45
2021/01/20 06:48:04;;;;;;;9.30;5.05;;;5.60;99.90;;;;;;5034263;28;20018;-43
2021/01/20 06:50:31;;;;;;;10.00;4.15;;;5.70;99.90;;;;;;5028235;28;20029;-47
2021/01/20 06:53:00;;;;;;;5.65;3.70;;;5.70;99.90;;;;;;5029906;28;20180;-45
2021/01/20 06:55:37;;;;;;;7.78;4.22;;;5.70;99.90;;;;;;5029225;28;20030;-44
2021/01/20 06:58:19;;;;;;;5.80;3.47;;;5.70;99.90;;;;;;5029931;28;20483;-44
2021/01/20 07:01:04;;;;;;;8.52;3.95;;;5.70;99.90;;;;;;5029364;28;20091;-45
2021/01/20 07:03:48;;;;;;;6.28;3.97;;;5.80;99.90;;;;;;5030263;28;20048;-44
2021/01/20 07:06:35;;;;;;;5.70;3.80;;;5.80;99.90;;;;;;5028813;28;20475;-45
2021/01/20 07:09:02;;;;;;;7.57;4.18;;;5.90;99.90;;;;;;5029132;28;20104;-44
2021/01/20 07:11:29;;;;;;;7.22;4.32;;;5.90;99.90;;;;;;5028972;28;20044;-45
2021/01/20 07:13:55;;;;;;;7.15;4.13;;;5.80;99.90;;;;;;5029868;28;20057;-45
2021/01/20 07:16:21;;;;;;;7.63;4.05;;;5.90;99.90;;;;;;5028510;28;20115;-44
2021/01/20 07:18:50;;;;;;;10.88;4.63;;;5.90;99.90;;;;;;5029093;28;20084;-44
2021/01/20 07:21:16;;;;;;;6.80;4.05;;;6.00;99.90;;;;;;5029438;28;20044;-45
2021/01/20 07:23:42;;;;;;;8.15;3.42;;;6.00;99.90;;;;;;5027830;28;20028;-44
2021/01/20 07:26:08;;;;;;;5.88;3.53;;;6.00;99.90;;;;;;5028355;28;20033;-45
2021/01/20 07:28:35;;;;;;;6.00;3.75;;;6.10;99.90;;;;;;5028812;28;20074;-45
2021/01/20 07:31:06;;;;;;;7.68;3.63;;;6.00;99.90;;;;;;5028639;28;20026;-46
2021/01/20 07:33:32;;;;;;;5.55;3.20;;;6.00;99.90;;;;;;5034252;28;20060;-44
2021/01/20 07:36:08;;;;;;;6.95;3.45;;;6.00;99.90;;;;;;5028021;28;20049;-44
2021/01/20 07:38:34;;;;;;;7.18;3.78;;;6.10;99.90;;;;;;5026203;28;20108;-44
2021/01/20 07:41:12;;;;;;;6.05;3.22;;;6.10;99.90;;;;;;5028798;28;20113;-44
2021/01/20 07:43:38;;;;;;;6.13;3.50;;;6.20;99.90;;;;;;5029053;28;20368;-44
2021/01/20 07:46:13;;;;;;;5.72;3.47;;;6.10;99.90;;;;;;5026881;28;20037;-45
2021/01/20 07:48:38;;;;;;;5.65;3.45;;;6.20;99.90;;;;;;5028647;28;20033;-45
2021/01/20 07:51:04;;;;;;;7.65;3.45;;;6.20;99.90;;;;;;5028918;28;20087;-44
2021/01/20 07:53:30;;;;;;;5.45;3.45;;;6.20;99.90;;;;;;5028448;28;20028;-43
2021/01/20 07:55:55;;;;;;;7.05;3.10;;;6.30;99.90;;;;;;5024867;28;20453;-42
2021/01/20 07:58:26;;;;;;;4.90;3.22;;;6.30;99.90;;;;;;5025662;28;20029;-43
2021/01/20 08:00:51;;;;;;;7.57;3.33;;;6.40;99.90;;;;;;5028139;28;20107;-44
2021/01/20 08:03:33;;;;;;;5.65;3.17;;;6.50;99.90;;;;;;5028533;28;20488;-45
2021/01/20 08:05:59;;;;;;;6.65;3.00;;;6.50;99.90;;;;;;5028194;28;20094;-44
2021/01/20 08:08:25;;;;;;;6.20;3.40;;;6.50;99.90;;;;;;5028495;28;20109;-43
2021/01/20 08:10:56;;;;;;;6.60;3.13;;;6.50;99.90;;;;;;5028493;28;20428;-45
2021/01/20 08:13:25;;;;;;;4.63;2.80;;;6.60;99.90;;;;;;5028856;28;20029;-45
2021/01/20 08:15:51;;;;;;;4.43;3.33;;;6.60;99.90;;;;;;5027758;28;20026;-44
2021/01/20 08:18:18;;;;;;;7.88;3.35;;;6.60;99.90;;;;;;5028442;28;20047;-45
2021/01/20 08:20:44;;;;;;;3.95;2.85;;;6.60;99.90;;;;;;5028247;28;20037;-44
2021/01/20 08:23:35;;;;;;;7.22;3.22;;;6.70;99.90;;;;;;5028183;28;20029;-45
2021/01/20 08:26:07;;;;;;;;;;;6.70;99.90;;;;;;5027765;28;20036;-45
2021/01/20 08:28:33;;;;;;;4.05;2.88;;;6.80;99.90;;;;;;5027760;28;19999;-44
2021/01/20 08:30:58;;;;;;;5.20;3.63;;;6.90;99.90;;;;;;5027408;28;20116;-44
2021/01/20 08:33:24;;;;;;;5.65;3.65;;;6.90;99.90;;;;;;5027393;28;20276;-44
2021/01/20 08:35:57;;;;;;;5.20;3.20;;;7.00;99.90;;;;;;5025964;28;20026;-45
2021/01/20 08:38:28;;;;;;;4.80;2.78;;;7.10;99.90;;;;;;5027936;28;20025;-45
2021/01/20 08:41:19;;;;;;;18.08;3.35;;;7.10;99.90;;;;;;5027125;28;20029;-44
2021/01/20 08:43:45;;;;;;;5.88;2.90;;;7.20;99.90;;;;;;5026872;28;20034;-43
2021/01/20 08:46:26;;;;;;;3.97;3.08;;;7.20;99.90;;;;;;5027201;28;20029;-44
2021/01/20 08:48:57;;;;;;;5.35;3.42;;;7.20;99.90;;;;;;5027985;28;20032;-44
2021/01/20 08:51:22;;;;;;;6.43;3.10;;;7.20;99.90;;;;;;5028028;28;20025;-44
2021/01/20 08:53:48;;;;;;;4.72;3.20;;;7.30;99.90;;;;;;5028202;28;20036;-47
2021/01/20 08:56:23;;;;;;;5.60;3.45;;;7.30;99.90;;;;;;5025971;28;20051;-45
2021/01/20 08:58:53;;;;;;;4.57;2.70;;;7.30;99.90;;;;;;5027615;28;20033;-44
2021/01/20 09:01:21;;;;;;;5.20;3.30;;;7.40;99.90;;;;;;5027569;28;20017;-44
2021/01/20 09:03:58;;;;;;;5.72;3.22;;;7.40;99.90;;;;;;5027891;28;20253;-44
2021/01/20 09:06:24;;;;;;;5.05;3.03;;;7.50;99.90;;;;;;5009457;28;20391;-44
2021/01/20 09:08:50;;;;;;;4.50;3.15;;;7.60;99.90;;;;;;5027630;28;20021;-45
2021/01/20 09:11:15;;;;;;;5.57;3.10;;;7.60;99.90;;;;;;5028437;28;20083;-45
2021/01/20 09:13:41;;;;;;;3.95;3.03;;;7.70;99.90;;;;;;5027999;28;20462;-45
2021/01/20 09:16:07;;;;;;;4.32;2.70;;;7.80;99.90;;;;;;5027078;28;20107;-46
2021/01/20 09:18:32;;;;;;;4.35;2.50;;;7.80;99.90;;;;;;5027202;28;20255;-43
2021/01/20 09:21:00;;;;;;;3.88;2.97;;;7.90;99.90;;;;;;5027820;28;20030;-45
2021/01/20 09:23:26;;;;;;;6.07;3.55;;;8.00;99.90;;;;;;5027760;28;20061;-45
2021/01/20 09:25:53;;;;;;;4.80;3.00;;;8.10;99.90;;;;;;5026831;28;20083;-45
2021/01/20 09:28:19;;;;;;;6.80;3.30;;;8.10;99.90;;;;;;5027707;28;20033;-44
2021/01/20 09:30:45;;;;;;;5.40;2.83;;;8.20;99.90;;;;;;5027057;28;20267;-45
2021/01/20 09:33:11;;;;;;;7.18;3.03;;;8.20;99.90;;;;;;5027749;28;20056;-45
2021/01/20 09:35:36;;;;;;;5.10;2.80;;;8.20;99.90;;;;;;5027356;28;20033;-45
2021/01/20 09:38:05;;;;;;;4.93;3.00;;;8.30;99.90;;;;;;5027990;28;20029;-44
2021/01/20 09:40:32;;;;;;;6.30;3.60;;;8.30;99.90;;;;;;5027334;28;20026;-44
2021/01/20 09:42:57;;;;;;;4.95;3.25;;;8.40;99.90;;;;;;5027522;28;20107;-46
2021/01/20 09:45:27;;;;;;;5.15;2.80;;;8.40;99.90;;;;;;5027454;28;20021;-45
2021/01/20 09:47:55;;;;;;;8.98;3.08;;;8.40;99.90;;;;;;5030517;28;20025;-44
2021/01/20 09:50:20;;;;;;;5.25;2.85;;;8.50;99.90;;;;;;5030396;28;20041;-44
2021/01/20 09:52:47;;;;;;;8.05;3.33;;;8.50;99.90;;;;;;5030430;28;20013;-44
2021/01/20 09:55:14;;;;;;;5.28;3.00;;;8.50;99.90;;;;;;5029558;28;20018;-44
2021/01/20 09:57:40;;;;;;;4.72;2.75;;;8.50;99.90;;;;;;5029605;28;20029;-46
2021/01/20 10:00:06;;;;;;;3.95;2.97;;;8.50;99.90;;;;;;5030166;28;20184;-44
2021/01/20 10:02:32;;;;;;;8.52;3.55;;;8.50;99.90;;;;;;5030069;28;20017;-45
2021/01/20 10:04:58;;;;;;;4.70;2.85;;;8.60;99.90;;;;;;5029953;28;20521;-46
2021/01/20 10:07:24;;;;;;;7.75;3.17;;;8.60;99.90;;;;;;5030332;28;20025;-45
2021/01/20 10:09:51;;;;;;;7.25;3.08;;;8.60;99.90;;;;;;5030003;28;20021;-46
2021/01/20 10:12:18;;;;;;;10.98;3.72;;;8.70;99.90;;;;;;5030060;28;20142;-45
2021/01/20 10:14:44;;;;;;;5.05;3.13;;;8.60;99.90;;;;;;5029353;28;20029;-46
2021/01/20 10:17:10;;;;;;;5.43;3.05;;;8.60;99.90;;;;;;5028582;28;20484;-45
2021/01/20 10:19:35;;;;;;;8.88;3.58;;;8.60;99.90;;;;;;5029508;28;20044;-45
2021/01/20 10:22:01;;;;;;;4.93;3.20;;;8.60;99.90;;;;;;5028618;28;20227;-45
2021/01/20 10:24:27;;;;;;;5.93;3.05;;;8.60;99.90;;;;;;5028058;28;20037;-46
2021/01/20 10:26:52;;;;;;;6.15;3.13;;;8.70;99.90;;;;;;5028893;28;20041;-44
2021/01/20 10:29:18;;;;;;;6.85;2.95;;;8.70;99.90;;;;;;5028379;28;20052;-46
2021/01/20 10:31:43;;;;;;;4.43;2.60;;;8.70;99.90;;;;;;5029536;28;20029;-46
2021/01/20 10:34:10;;;;;;;5.75;2.95;;;8.70;99.90;;;;;;5029422;28;20299;-45
2021/01/20 10:36:37;;;;;;;5.60;2.80;;;8.70;99.90;;;;;;5028531;28;20013;-45
2021/01/20 10:39:04;;;;;;;5.15;2.88;;;8.70;99.90;;;;;;5029758;28;20029;-45
2021/01/20 10:41:30;;;;;;;5.68;3.05;;;8.70;99.90;;;;;;5029854;28;20028;-44
2021/01/20 10:43:55;;;;;;;4.93;3.17;;;8.70;99.90;;;;;;5029671;28;20021;-45
2021/01/20 10:46:25;;;;;;;5.30;2.80;;;8.60;99.90;;;;;;5028642;28;20025;-46
2021/01/20 10:48:52;;;;;;;6.50;2.60;;;8.60;99.90;;;;;;5029168;28;20033;-45
2021/01/20 10:51:18;;;;;;;4.78;2.83;;;8.60;99.90;;;;;;5029718;28;20024;-45
2021/01/20 10:53:43;;;;;;;5.07;2.92;;;8.70;99.90;;;;;;5029463;28;20033;-46
2021/01/20 10:56:09;;;;;;;5.60;3.20;;;8.80;99.90;;;;;;5027416;28;20021;-45
2021/01/20 10:58:35;;;;;;;6.50;3.10;;;8.80;99.90;;;;;;5027916;28;20174;-43
2021/01/20 11:01:03;;;;;;;4.57;2.97;;;8.90;99.90;;;;;;5029509;28;20033;-44
2021/01/20 11:03:28;;;;;;;8.85;3.22;;;8.90;99.90;;;;;;5029749;28;20029;-44
2021/01/20 11:05:54;;;;;;;5.55;2.72;;;8.90;99.90;;;;;;5029216;28;20173;-43
2021/01/20 11:08:20;;;;;;;7.38;3.22;;;8.90;99.90;;;;;;5029223;28;20037;-45
2021/01/20 11:10:46;;;;;;;5.18;2.92;;;8.90;99.90;;;;;;5027987;28;20033;-43
2021/01/20 11:13:12;;;;;;;6.10;3.30;;;8.90;99.90;;;;;;5029983;28;20026;-44
2021/01/20 11:15:38;;;;;;;6.55;3.10;;;8.90;99.90;;;;;;5029035;28;20018;-47
2021/01/20 11:18:05;;;;;;;8.10;3.72;;;8.90;99.90;;;;;;5028918;28;20030;-46
2021/01/20 11:20:31;;;;;;;5.45;3.40;;;8.90;99.90;;;;;;5029240;28;20483;-46
2021/01/20 11:22:57;;;;;;;5.05;3.33;;;9.00;99.90;;;;;;5029385;28;20036;-45
2021/01/20 11:25:23;;;;;;;4.43;2.67;;;8.90;99.90;;;;;;5028822;28;20041;-45
2021/01/20 11:27:50;;;;;;;5.25;2.90;;;9.00;99.90;;;;;;5029046;28;20128;-45
2021/01/20 11:30:17;;;;;;;6.53;3.47;;;9.00;99.90;;;;;;5028868;28;20483;-44
2021/01/20 11:32:43;;;;;;;7.63;3.45;;;9.00;99.90;;;;;;5028573;28;20387;-43
2021/01/20 11:35:10;;;;;;;5.30;3.20;;;9.10;99.90;;;;;;5025988;28;20378;-44
2021/01/20 11:37:36;;;;;;;5.47;3.28;;;9.20;99.90;;;;;;5029079;28;20051;-43
2021/01/20 11:40:03;;;;;;;7.78;3.65;;;9.30;99.90;;;;;;5028518;28;20426;-44
2021/01/20 11:42:30;;;;;;;6.30;3.00;;;9.30;99.60;;;;;;5027925;28;20021;-44
2021/01/20 11:44:55;;;;;;;4.68;3.17;;;9.40;98.90;;;;;;5028513;28;20042;-46
2021/01/20 11:47:20;;;;;;;8.88;3.50;;;9.30;99.40;;;;;;5028789;28;20029;-44
2021/01/20 11:49:46;;;;;;;6.13;3.30;;;9.40;99.40;;;;;;5028508;28;20036;-44
2021/01/20 11:52:11;;;;;;;4.95;3.53;;;9.40;99.00;;;;;;5028612;28;20084;-45
2021/01/20 11:54:37;;;;;;;8.15;3.83;;;9.30;98.90;;;;;;5027601;28;20923;-43
2021/01/20 11:57:04;;;;;;;7.28;4.18;;;9.40;98.80;;;;;;5028238;28;20049;-44
2021/01/20 11:59:29;;;;;;;5.82;3.63;;;9.50;98.40;;;;;;5028753;28;20039;-45
2021/01/20 12:01:54;;;;;;;6.70;3.67;;;9.50;99.20;;;;;;5027980;28;20393;-44
2021/01/20 12:04:20;;;;;;;5.63;3.53;;;9.60;98.30;;;;;;5028019;28;20087;-44
2021/01/20 12:06:46;;;;;;;6.88;3.33;;;9.70;98.50;;;;;;5027328;28;20025;-46
2021/01/20 12:09:11;;;;;;;6.75;3.40;;;9.80;98.10;;;;;;5027906;28;20510;-45
2021/01/20 12:11:36;;;;;;;9.48;3.53;;;10.00;97.30;;;;;;5027439;28;20361;-45
2021/01/20 12:14:02;;;;;;;8.77;3.17;;;9.90;98.00;;;;;;5028543;28;20461;-45
2021/01/20 12:16:28;;;;;;;7.32;3.33;;;9.90;97.30;;;;;;5026173;28;20105;-45
2021/01/20 12:18:53;;;;;;;9.32;2.88;;;9.90;98.10;;;;;;5026778;28;20398;-46
2021/01/20 12:21:19;;;;;;;7.38;3.03;;;9.80;98.10;;;;;;5027817;28;20021;-44
2021/01/20 12:23:44;;;;;;;11.00;2.60;;;9.90;98.60;;;;;;5028360;28;20033;-45
2021/01/20 12:26:10;;;;;;;5.43;2.75;;;9.70;98.10;;;;;;5026854;28;20352;-45
2021/01/20 12:28:36;;;;;;;5.65;2.90;;;9.80;99.60;;;;;;5026715;28;20364;-45
2021/01/20 12:31:02;;;;;;;4.47;2.53;;;10.00;99.20;;;;;;5028168;28;20020;-44
2021/01/20 12:33:27;;;;;;;5.15;3.33;;;9.90;99.00;;;;;;5028065;28;20029;-45
2021/01/20 12:35:53;;;;;;;3.38;2.60;;;9.90;99.00;;;;;;5026498;28;20459;-44
2021/01/20 12:38:18;;;;;;;5.20;2.90;;;10.00;99.30;;;;;;5027952;28;20048;-44
2021/01/20 12:40:43;;;;;;;4.97;2.63;;;10.10;99.30;;;;;;5027470;28;20034;-44
2021/01/20 12:43:09;;;;;;;4.40;2.42;;;10.20;98.20;;;;;;5028171;28;20063;-44
2021/01/20 12:45:34;;;;;;;6.38;2.65;;;10.20;97.70;;;;;;5027552;28;20030;-45
2021/01/20 12:48:03;;;;;;;4.53;2.47;;;10.30;98.30;;;;;;5027827;28;20049;-44
2021/01/20 12:50:28;;;;;;;4.32;2.70;;;10.40;98.20;;;;;;5027943;28;20090;-44
2021/01/20 12:52:55;;;;;;;4.88;2.78;;;10.30;98.10;;;;;;5027457;28;20018;-44
2021/01/20 12:55:20;;;;;;;10.00;3.03;;;10.30;97.70;;;;;;5027343;28;20026;-44